Time;durP1;ratioP1;P1;durP2;ratioP2;P2;SDS_P1;SDS_P2;PMS_P1;PMS_P2;Temp;Humidity;BMP_temperature;BMP_pressure;BME280_temperature;BME280_humidity;BME280_pressure;Samples;Min_cycle;Max_cycle;Signal;HPM_P1;HPM_P2
2022/07/28 00:01:54;;;;;;;0.75;0.60;;;16.10;91.30;;;;;;5106890;28;20782;-34
2022/07/28 00:04:20;;;;;;;2.03;0.80;;;16.10;91.30;;;;;;5107528;28;20378;-35
2022/07/28 00:06:45;;;;;;;2.88;0.80;;;16.10;91.30;;;;;;5106538;28;20459;-35
2022/07/28 00:09:11;;;;;;;2.20;0.70;;;16.10;91.30;;;;;;5106615;28;20459;-34
2022/07/28 00:11:36;;;;;;;1.95;0.80;;;16.10;91.30;;;;;;5106260;28;20020;-34
2022/07/28 00:14:02;;;;;;;2.40;0.80;;;16.10;91.40;;;;;;5106222;28;20031;-34
2022/07/28 00:16:27;;;;;;;2.10;0.90;;;16.10;91.40;;;;;;5106743;28;20047;-35
2022/07/28 00:18:53;;;;;;;2.97;0.80;;;16.10;91.50;;;;;;5106855;28;20027;-35
2022/07/28 00:21:18;;;;;;;4.20;0.73;;;16.00;91.50;;;;;;5105820;28;20023;-35
2022/07/28 00:23:44;;;;;;;1.60;0.95;;;16.00;91.50;;;;;;5106391;28;20467;-33
2022/07/28 00:26:11;;;;;;;1.27;0.77;;;16.00;91.60;;;;;;5105084;28;20047;-34
2022/07/28 00:28:37;;;;;;;3.75;1.00;;;16.00;91.60;;;;;;5102245;28;20139;-34
2022/07/28 00:31:05;;;;;;;3.05;0.80;;;15.90;91.60;;;;;;5107163;28;20489;-34
2022/07/28 00:33:31;;;;;;;3.50;0.90;;;15.90;91.60;;;;;;5105740;28;20100;-35
2022/07/28 00:35:56;;;;;;;1.02;0.80;;;15.90;91.70;;;;;;5105992;28;20516;-35
2022/07/28 00:38:22;;;;;;;1.65;1.05;;;15.90;91.70;;;;;;5106465;28;20030;-34
2022/07/28 00:43:32;;;;;;;2.63;0.60;;;15.80;91.80;;;;;;5105719;28;20042;-34
2022/07/28 00:45:57;;;;;;;1.83;0.77;;;15.80;91.80;;;;;;5106860;28;20023;-34
2022/07/28 00:48:23;;;;;;;1.27;0.70;;;15.70;91.90;;;;;;5106073;28;20036;-35
2022/07/28 00:50:50;;;;;;;3.38;0.82;;;15.70;91.90;;;;;;5105551;28;20080;-34
2022/07/28 00:53:16;;;;;;;0.93;0.60;;;15.70;91.90;;;;;;5106055;28;20360;-34
2022/07/28 00:55:42;;;;;;;1.00;0.70;;;15.70;91.90;;;;;;5105807;28;20015;-34
2022/07/28 00:58:07;;;;;;;1.00;0.70;;;15.70;92.00;;;;;;5105648;28;20035;-33
2022/07/28 01:00:33;;;;;;;1.80;0.95;;;15.70;92.00;;;;;;5105951;28;20035;-35
2022/07/28 01:02:58;;;;;;;1.27;0.70;;;15.70;92.00;;;;;;5106314;28;20043;-34
2022/07/28 01:05:30;;;;;;;5.57;0.93;;;15.70;92.10;;;;;;5104781;28;20495;-35
2022/07/28 01:08:34;;;;;;;0.70;0.63;;;15.70;92.10;;;;;;5106212;28;20515;-34
2022/07/28 01:11:37;;;;;;;2.63;0.82;;;15.60;92.20;;;;;;5099059;28;20058;-35
2022/07/28 01:14:18;;;;;;;1.80;0.80;;;15.60;92.20;;;;;;5101993;28;20039;-35
2022/07/28 01:17:07;;;;;;;2.97;0.90;;;15.50;92.20;;;;;;5105555;28;20052;-35
2022/07/28 01:19:53;;;;;;;1.27;0.80;;;15.50;92.30;;;;;;5091155;28;20059;-35
2022/07/28 01:22:24;;;;;;;1.27;0.80;;;15.50;92.30;;;;;;5085590;28;20031;-35
2022/07/28 01:25:12;;;;;;;1.33;0.80;;;15.50;92.40;;;;;;5101241;28;20027;-35
2022/07/28 01:28:10;;;;;;;2.67;0.80;;;15.40;92.40;;;;;;5084909;28;20055;-35
2022/07/28 01:30:40;;;;;;;2.65;0.98;;;15.40;92.50;;;;;;5104917;28;20043;-33
2022/07/28 01:33:16;;;;;;;2.40;0.85;;;15.30;92.50;;;;;;5104766;28;20059;-33
2022/07/28 01:35:46;;;;;;;1.25;0.82;;;15.30;92.60;;;;;;5104201;28;20114;-34
2022/07/28 01:38:14;;;;;;;1.35;0.93;;;15.20;92.70;;;;;;5105917;28;20047;-33
2022/07/28 01:40:44;;;;;;;0.80;0.60;;;15.20;92.70;;;;;;5104483;28;20038;-33
2022/07/28 01:43:14;;;;;;;1.00;0.75;;;15.20;92.80;;;;;;5105268;28;20081;-33
2022/07/28 01:45:41;;;;;;;0.73;0.60;;;15.10;92.80;;;;;;5104629;28;20031;-35
2022/07/28 01:48:09;;;;;;;2.15;0.80;;;15.10;92.90;;;;;;5105913;28;20062;-34
2022/07/28 01:50:36;;;;;;;2.67;0.80;;;15.10;92.90;;;;;;5104821;28;20441;-34
2022/07/28 01:53:03;;;;;;;1.75;0.95;;;15.00;93.00;;;;;;5104709;28;20423;-34
2022/07/28 01:55:29;;;;;;;1.38;0.90;;;15.00;93.00;;;;;;5104357;28;20047;-34
2022/07/28 01:57:56;;;;;;;3.15;0.80;;;15.00;93.10;;;;;;5104962;28;20431;-34
2022/07/28 02:00:24;;;;;;;3.08;0.98;;;14.90;93.10;;;;;;5104292;28;20024;-34
2022/07/28 02:02:52;;;;;;;1.15;0.75;;;14.90;93.20;;;;;;5105610;28;20039;-34
2022/07/28 02:05:20;;;;;;;1.42;0.82;;;14.80;93.20;;;;;;5104407;28;20020;-34
2022/07/28 02:07:48;;;;;;;0.70;0.70;;;14.80;93.20;;;;;;5103698;28;20096;-34
2022/07/28 02:10:16;;;;;;;2.78;0.77;;;14.80;93.20;;;;;;5105059;28;20467;-34
2022/07/28 02:12:45;;;;;;;1.30;0.68;;;14.80;93.30;;;;;;5105038;28;20078;-35
2022/07/28 02:15:12;;;;;;;1.45;0.80;;;14.70;93.40;;;;;;5104670;28;20426;-34
2022/07/28 02:17:41;;;;;;;0.73;0.57;;;14.70;93.40;;;;;;5105446;28;20141;-34
2022/07/28 02:20:09;;;;;;;0.60;0.60;;;14.70;93.40;;;;;;5105135;28;20480;-34
2022/07/28 02:22:36;;;;;;;1.98;0.70;;;14.70;93.50;;;;;;5104221;28;20490;-35
2022/07/28 02:25:02;;;;;;;1.42;0.80;;;14.60;93.50;;;;;;5105126;28;20091;-34
2022/07/28 02:27:34;;;;;;;0.80;0.70;;;14.60;93.50;;;;;;5104034;28;20027;-33
2022/07/28 02:30:14;;;;;;;1.23;0.77;;;14.60;93.60;;;;;;5105101;28;20031;-35
2022/07/28 02:32:55;;;;;;;1.00;0.80;;;14.50;93.70;;;;;;5103895;28;20027;-34
2022/07/28 02:35:31;;;;;;;1.23;0.70;;;14.60;93.70;;;;;;5103760;28;20528;-35
2022/07/28 02:38:01;;;;;;;1.13;0.50;;;14.50;93.70;;;;;;5101615;28;20303;-34
2022/07/28 02:40:35;;;;;;;2.28;0.75;;;14.50;93.70;;;;;;5104845;28;20470;-33
2022/07/28 02:43:01;;;;;;;1.45;0.70;;;14.50;93.80;;;;;;5103684;28;20026;-33
2022/07/28 02:45:28;;;;;;;1.05;0.70;;;14.50;93.80;;;;;;5103854;28;20055;-33
2022/07/28 02:48:00;;;;;;;1.60;0.68;;;14.50;93.80;;;;;;5104980;28;20063;-33
2022/07/28 02:50:28;;;;;;;2.35;0.77;;;14.50;93.90;;;;;;5103778;28;20058;-33
2022/07/28 02:52:57;;;;;;;1.77;0.82;;;14.50;93.90;;;;;;5105304;28;20051;-33
2022/07/28 02:55:24;;;;;;;0.70;0.70;;;14.40;93.90;;;;;;5105072;28;20039;-34
2022/07/28 02:57:50;;;;;;;2.25;1.10;;;14.40;94.00;;;;;;5108064;28;20030;-34
2022/07/28 03:00:16;;;;;;;2.30;0.90;;;14.40;94.10;;;;;;5108978;28;20039;-33
2022/07/28 03:02:45;;;;;;;1.83;0.88;;;14.40;94.10;;;;;;5107731;28;20490;-33
2022/07/28 03:05:14;;;;;;;1.02;0.80;;;14.40;94.10;;;;;;5108432;28;20023;-33
2022/07/28 03:07:40;;;;;;;3.28;0.80;;;14.40;94.10;;;;;;5108351;28;20354;-35
2022/07/28 03:10:06;;;;;;;1.90;1.05;;;14.40;94.10;;;;;;5107880;28;20023;-35
2022/07/28 03:12:32;;;;;;;2.05;0.93;;;14.40;94.10;;;;;;5107805;28;20574;-34
2022/07/28 03:14:57;;;;;;;3.70;0.95;;;14.40;94.10;;;;;;5108129;28;20030;-34
2022/07/28 03:17:23;;;;;;;2.15;0.80;;;14.50;94.10;;;;;;5106956;28;20019;-34
2022/07/28 03:19:49;;;;;;;1.83;0.70;;;14.50;94.10;;;;;;5108614;28;20096;-34
2022/07/28 03:22:14;;;;;;;1.73;0.70;;;14.40;94.10;;;;;;5107151;28;20031;-34
2022/07/28 03:24:49;;;;;;;1.30;0.70;;;14.40;94.10;;;;;;5106947;28;20019;-34
2022/07/28 03:27:31;;;;;;;1.58;0.73;;;14.50;94.10;;;;;;5107630;28;20379;-34
2022/07/28 03:30:27;;;;;;;1.13;0.60;;;14.40;94.10;;;;;;5108299;28;20023;-35
2022/07/28 03:32:55;;;;;;;1.50;0.70;;;14.50;94.10;;;;;;5086015;28;20024;-33
2022/07/28 03:35:22;;;;;;;1.35;0.60;;;14.50;94.10;;;;;;5107354;28;20024;-33
2022/07/28 03:38:12;;;;;;;3.05;2.05;;;14.40;94.10;;;;;;5107902;28;20024;-33
2022/07/28 03:40:38;;;;;;;0.93;0.60;;;14.40;94.10;;;;;;5097461;28;20089;-34
2022/07/28 03:43:07;;;;;;;3.15;0.77;;;14.40;94.10;;;;;;5107819;28;20019;-33
2022/07/28 03:45:34;;;;;;;0.95;0.60;;;14.40;94.10;;;;;;5105839;28;20073;-35
2022/07/28 03:48:00;;;;;;;3.42;0.70;;;14.40;94.10;;;;;;5107597;28;20036;-34
2022/07/28 03:50:28;;;;;;;1.70;0.60;;;14.40;94.20;;;;;;5106543;28;20028;-35
2022/07/28 03:52:55;;;;;;;2.80;1.23;;;14.40;94.20;;;;;;5107361;28;20421;-35
2022/07/28 03:55:21;;;;;;;2.08;1.00;;;14.40;94.20;;;;;;5107412;28;20027;-34
2022/07/28 03:57:47;;;;;;;2.13;0.70;;;14.40;94.20;;;;;;5107168;28;20036;-35
2022/07/28 04:00:15;;;;;;;2.13;0.80;;;14.40;94.30;;;;;;5106232;28;20034;-34
2022/07/28 04:02:45;;;;;;;2.58;0.80;;;14.40;94.30;;;;;;5107384;28;20036;-35
2022/07/28 04:05:11;;;;;;;1.67;0.60;;;14.40;94.30;;;;;;5107665;28;20070;-34
2022/07/28 04:07:38;;;;;;;2.85;0.70;;;14.40;94.30;;;;;;5106083;28;20048;-34
2022/07/28 04:10:05;;;;;;;0.98;0.60;;;14.40;94.30;;;;;;5107572;28;20019;-34
2022/07/28 04:12:30;;;;;;;1.17;0.50;;;14.40;94.30;;;;;;5106534;28;20036;-35
2022/07/28 04:14:56;;;;;;;1.38;0.60;;;14.40;94.30;;;;;;5106357;28;20084;-34
2022/07/28 04:17:21;;;;;;;1.50;0.80;;;14.40;94.30;;;;;;5107134;28;20034;-33
2022/07/28 04:19:47;;;;;;;2.95;0.93;;;14.50;94.40;;;;;;5106853;28;20482;-34
2022/07/28 04:22:12;;;;;;;2.05;1.00;;;14.40;94.40;;;;;;5106315;28;20038;-34
2022/07/28 04:24:38;;;;;;;2.40;0.80;;;14.40;94.40;;;;;;5107149;28;20027;-34
2022/07/28 04:27:03;;;;;;;3.55;0.80;;;14.40;94.40;;;;;;5106550;28;20032;-34
2022/07/28 04:29:29;;;;;;;1.77;0.70;;;14.50;94.60;;;;;;5106066;28;20027;-34
2022/07/28 04:31:54;;;;;;;0.80;0.80;;;14.50;94.50;;;;;;5106811;28;20414;-34
2022/07/28 04:34:20;;;;;;;1.42;0.77;;;14.50;94.50;;;;;;5105258;28;20145;-35
2022/07/28 04:36:45;;;;;;;3.33;0.80;;;14.50;94.50;;;;;;5106503;28;20383;-33
2022/07/28 04:39:11;;;;;;;4.20;1.00;;;14.50;94.50;;;;;;5107331;28;20031;-34
2022/07/28 04:41:38;;;;;;;1.63;0.70;;;14.50;94.60;;;;;;5105228;28;20058;-35
2022/07/28 04:44:04;;;;;;;0.73;0.73;;;14.50;94.60;;;;;;5106917;28;20019;-34
2022/07/28 04:46:29;;;;;;;1.25;0.70;;;14.50;94.60;;;;;;5105529;28;20500;-35
2022/07/28 04:48:55;;;;;;;2.65;0.95;;;14.50;94.80;;;;;;5105744;28;20035;-34
2022/07/28 04:51:21;;;;;;;2.83;0.95;;;14.60;94.70;;;;;;5105688;28;20146;-34
2022/07/28 04:53:47;;;;;;;2.63;0.90;;;14.60;94.80;;;;;;5106032;28;20412;-34
2022/07/28 04:56:13;;;;;;;0.95;0.70;;;14.60;94.80;;;;;;5105317;28;20076;-34
2022/07/28 04:58:38;;;;;;;2.72;1.02;;;14.60;94.80;;;;;;5105473;28;20019;-34
2022/07/28 05:01:04;;;;;;;1.45;0.90;;;14.60;94.80;;;;;;5106543;28;20023;-33
2022/07/28 05:03:29;;;;;;;1.90;0.95;;;14.60;94.90;;;;;;5105188;28;20386;-33
2022/07/28 05:05:55;;;;;;;2.78;1.13;;;14.70;94.90;;;;;;5106203;28;20504;-34
2022/07/28 05:08:22;;;;;;;4.15;1.00;;;14.70;94.90;;;;;;5106488;28;20478;-33
2022/07/28 05:10:47;;;;;;;3.53;1.10;;;14.70;94.90;;;;;;5105262;28;20023;-33
2022/07/28 05:13:13;;;;;;;3.55;1.10;;;14.70;94.90;;;;;;5106033;28;20030;-34
2022/07/28 05:15:38;;;;;;;2.63;0.88;;;14.80;94.90;;;;;;5106215;28;20019;-34
2022/07/28 05:18:04;;;;;;;2.55;1.00;;;14.90;94.90;;;;;;5105575;28;20027;-34
2022/07/28 05:20:30;;;;;;;4.15;0.90;;;14.90;94.80;;;;;;5105830;28;20030;-34
2022/07/28 05:22:56;;;;;;;1.42;0.80;;;15.00;94.80;;;;;;5106048;28;20490;-33
2022/07/28 05:25:23;;;;;;;2.60;0.75;;;15.00;94.80;;;;;;5105930;28;20063;-34
2022/07/28 05:27:50;;;;;;;2.97;1.02;;;15.10;94.70;;;;;;5105720;28;20047;-34
2022/07/28 05:30:16;;;;;;;0.60;0.50;;;15.20;94.70;;;;;;5106077;28;20027;-33
2022/07/28 05:32:44;;;;;;;1.58;0.60;;;15.20;94.60;;;;;;5104891;28;20024;-34
2022/07/28 05:35:10;;;;;;;1.90;0.63;;;15.30;94.60;;;;;;5106191;28;20024;-34
2022/07/28 05:37:36;;;;;;;4.00;0.82;;;15.30;94.60;;;;;;5104328;28;20686;-34
2022/07/28 05:40:07;;;;;;;2.85;0.70;;;15.30;94.60;;;;;;5106247;28;20102;-33
2022/07/28 05:42:34;;;;;;;1.65;0.77;;;15.40;94.60;;;;;;5104449;28;20024;-33
2022/07/28 05:45:02;;;;;;;2.22;0.88;;;15.40;94.60;;;;;;5104947;28;20065;-35
2022/07/28 05:47:27;;;;;;;1.70;0.60;;;15.40;94.60;;;;;;5104427;28;20554;-34
2022/07/28 05:49:57;;;;;;;1.45;0.80;;;15.40;94.60;;;;;;5105613;28;20040;-34
2022/07/28 05:52:23;;;;;;;2.47;0.80;;;15.50;94.60;;;;;;5104392;28;20023;-34
2022/07/28 05:54:48;;;;;;;3.75;0.95;;;15.50;94.70;;;;;;5105647;28;20020;-33
2022/07/28 05:57:14;;;;;;;1.83;0.70;;;15.50;94.60;;;;;;5105163;28;20666;-34
2022/07/28 05:59:39;;;;;;;2.20;0.70;;;15.50;94.70;;;;;;5103897;28;20038;-34
2022/07/28 06:02:05;;;;;;;2.83;0.77;;;15.50;94.60;;;;;;5105884;28;20030;-34
2022/07/28 06:04:30;;;;;;;2.90;0.80;;;15.50;94.60;;;;;;5104430;28;20433;-34
2022/07/28 06:06:56;;;;;;;2.00;0.70;;;15.60;94.60;;;;;;5104455;28;20540;-34
2022/07/28 06:09:21;;;;;;;2.92;0.90;;;15.60;94.60;;;;;;5104869;28;20049;-34
2022/07/28 06:11:49;;;;;;;3.10;1.02;;;15.60;94.60;;;;;;5104714;28;20032;-34
2022/07/28 06:14:14;;;;;;;1.83;0.57;;;15.60;94.70;;;;;;5104249;28;20019;-33
2022/07/28 06:16:40;;;;;;;1.92;0.90;;;15.60;94.70;;;;;;5105693;28;20023;-35
2022/07/28 06:19:05;;;;;;;3.20;0.70;;;15.60;94.70;;;;;;5105688;28;20016;-35
2022/07/28 06:21:31;;;;;;;1.77;0.70;;;15.70;94.90;;;;;;5104575;28;20623;-34
2022/07/28 06:23:57;;;;;;;2.20;0.80;;;15.70;94.70;;;;;;5104978;28;20027;-34
2022/07/28 06:26:25;;;;;;;1.13;0.70;;;15.80;94.70;;;;;;5104662;28;20046;-34
2022/07/28 06:28:51;;;;;;;1.40;0.75;;;15.80;94.70;;;;;;5104617;28;20043;-34
2022/07/28 06:31:16;;;;;;;1.95;0.60;;;15.90;94.60;;;;;;5107276;28;20015;-34
2022/07/28 06:33:42;;;;;;;2.10;0.70;;;15.90;94.50;;;;;;5108098;28;20026;-35
2022/07/28 06:36:07;;;;;;;1.85;0.73;;;16.00;94.50;;;;;;5108941;28;20478;-35
2022/07/28 06:38:33;;;;;;;1.10;0.63;;;16.00;94.40;;;;;;5108671;28;20031;-33
2022/07/28 06:40:59;;;;;;;1.10;0.80;;;16.10;94.40;;;;;;5108230;28;20739;-34
2022/07/28 06:43:25;;;;;;;1.60;0.60;;;16.10;94.20;;;;;;5108232;28;20035;-34
2022/07/28 06:45:50;;;;;;;2.10;0.80;;;16.20;94.20;;;;;;5109346;28;20019;-34
2022/07/28 06:48:17;;;;;;;2.35;0.98;;;16.30;94.10;;;;;;5107869;28;20032;-34
2022/07/28 06:50:43;;;;;;;2.20;0.88;;;16.30;94.00;;;;;;5108384;28;20094;-35
2022/07/28 06:53:08;;;;;;;2.20;0.73;;;16.40;93.80;;;;;;5109002;28;20441;-35
2022/07/28 06:55:34;;;;;;;1.70;0.70;;;16.40;93.70;;;;;;5107188;28;20027;-34
2022/07/28 06:57:59;;;;;;;1.30;0.70;;;16.50;93.70;;;;;;5108774;28;20028;-34
2022/07/28 07:00:25;;;;;;;1.38;0.60;;;16.50;93.60;;;;;;5108041;28;20033;-34
2022/07/28 07:02:51;;;;;;;3.08;1.00;;;16.60;93.50;;;;;;5108618;28;20501;-35
2022/07/28 07:05:16;;;;;;;1.15;0.70;;;16.70;93.40;;;;;;5108311;28;20550;-33
2022/07/28 07:07:42;;;;;;;1.67;0.70;;;16.80;93.40;;;;;;5108373;28;20027;-33
2022/07/28 07:10:08;;;;;;;3.10;0.70;;;17.00;93.20;;;;;;5108343;28;20069;-33
2022/07/28 07:12:34;;;;;;;1.45;0.70;;;17.00;93.10;;;;;;5107748;28;20032;-34
2022/07/28 07:15:00;;;;;;;1.17;0.60;;;17.10;93.00;;;;;;5108244;28;20023;-34
2022/07/28 07:17:26;;;;;;;2.15;0.70;;;17.20;92.90;;;;;;5107199;28;20029;-34
2022/07/28 07:19:51;;;;;;;1.05;0.73;;;17.30;92.70;;;;;;5108009;28;20046;-34
2022/07/28 07:22:17;;;;;;;2.03;0.63;;;17.40;92.70;;;;;;5108107;28;20024;-34
2022/07/28 07:24:42;;;;;;;1.40;0.63;;;17.50;92.50;;;;;;5106963;28;20833;-34
2022/07/28 07:27:08;;;;;;;1.00;0.60;;;17.50;92.20;;;;;;5107498;28;20696;-35
2022/07/28 07:29:33;;;;;;;1.00;0.50;;;17.60;92.20;;;;;;5107827;28;20599;-34
2022/07/28 07:31:59;;;;;;;1.80;0.70;;;17.60;92.00;;;;;;5107498;28;20463;-33
2022/07/28 07:34:25;;;;;;;3.72;0.65;;;17.70;92.00;;;;;;5107639;28;20035;-34
2022/07/28 07:36:50;;;;;;;1.50;0.60;;;17.80;91.90;;;;;;5107880;28;20019;-33
2022/07/28 07:39:16;;;;;;;2.33;0.93;;;17.90;91.80;;;;;;5107267;28;20497;-34
2022/07/28 07:41:42;;;;;;;1.30;0.70;;;18.00;91.60;;;;;;5106919;28;20394;-34
2022/07/28 07:44:08;;;;;;;1.88;0.70;;;18.10;91.40;;;;;;5107676;28;20537;-34
2022/07/28 07:46:35;;;;;;;3.38;0.75;;;18.00;91.20;;;;;;5107017;28;20028;-34
2022/07/28 07:49:01;;;;;;;2.13;0.70;;;18.10;91.20;;;;;;5107794;28;20122;-34
2022/07/28 07:51:26;;;;;;;2.70;0.80;;;18.10;91.00;;;;;;5106349;28;20094;-34
2022/07/28 07:53:52;;;;;;;1.25;0.60;;;18.10;90.70;;;;;;5107653;28;20738;-34
2022/07/28 07:56:17;;;;;;;1.15;0.65;;;18.10;90.50;;;;;;5107237;28;20074;-35
2022/07/28 07:58:43;;;;;;;0.93;0.60;;;18.10;90.40;;;;;;5106846;28;20728;-34
2022/07/28 08:01:11;;;;;;;1.73;0.73;;;18.10;90.30;;;;;;5107477;28;20479;-34
2022/07/28 08:03:37;;;;;;;1.27;0.70;;;18.00;90.10;;;;;;5106315;28;20019;-34
2022/07/28 08:06:02;;;;;;;2.10;0.70;;;18.00;90.10;;;;;;5107087;28;20038;-33
2022/07/28 08:08:28;;;;;;;2.35;0.70;;;18.00;90.10;;;;;;5106458;28;20072;-34
2022/07/28 08:10:54;;;;;;;1.70;0.80;;;18.00;89.70;;;;;;5105670;28;20509;-34
2022/07/28 08:13:19;;;;;;;1.60;0.95;;;18.00;89.50;;;;;;5105294;28;20050;-33
2022/07/28 08:15:45;;;;;;;1.85;0.77;;;17.90;89.30;;;;;;5106168;28;20542;-34
2022/07/28 08:18:11;;;;;;;1.58;0.60;;;17.90;89.50;;;;;;5106478;28;20038;-33
2022/07/28 08:20:37;;;;;;;1.00;0.65;;;17.90;89.70;;;;;;5105281;28;21094;-34
2022/07/28 08:23:02;;;;;;;1.90;0.70;;;17.90;89.40;;;;;;5106301;28;20015;-34
2022/07/28 08:25:28;;;;;;;2.50;0.90;;;18.00;89.30;;;;;;5105683;28;20050;-33
2022/07/28 08:27:53;;;;;;;2.05;0.60;;;18.00;88.90;;;;;;5105413;28;20114;-34
2022/07/28 08:30:19;;;;;;;3.13;0.50;;;18.00;88.00;;;;;;5106312;28;20497;-34
2022/07/28 08:32:45;;;;;;;1.77;0.60;;;18.00;87.70;;;;;;5105962;28;20024;-34
2022/07/28 08:35:11;;;;;;;0.95;0.52;;;18.00;87.80;;;;;;5105701;28;20016;-33
2022/07/28 08:37:38;;;;;;;0.93;0.40;;;18.10;88.10;;;;;;5105155;28;20637;-34
2022/07/28 08:40:07;;;;;;;2.50;0.57;;;18.10;88.30;;;;;;5106308;28;20073;-34
2022/07/28 08:43:02;;;;;;;0.43;0.35;;;18.10;88.20;;;;;;5104473;28;20767;-34
2022/07/28 08:45:29;;;;;;;2.88;0.60;;;18.20;88.10;;;;;;5103791;28;20031;-33
2022/07/28 08:47:56;;;;;;;3.25;0.75;;;18.20;88.20;;;;;;5104946;28;20036;-34
2022/07/28 08:50:23;;;;;;;1.08;0.65;;;18.30;87.60;;;;;;5101942;28;20016;-34
2022/07/28 08:52:50;;;;;;;1.00;0.45;;;18.30;86.80;;;;;;5106583;27;20413;-34
2022/07/28 08:55:23;;;;;;;2.10;0.50;;;18.30;86.60;;;;;;5103497;28;20144;-35
2022/07/28 08:57:48;;;;;;;;;;;18.30;86.10;;;;;;5106223;28;20036;-34
2022/07/28 09:00:14;;;;;;;0.93;0.50;;;18.30;86.00;;;;;;5104761;28;19914;-35
2022/07/28 09:02:46;;;;;;;1.10;0.60;;;18.40;85.90;;;;;;5104043;28;20032;-34
2022/07/28 09:05:12;;;;;;;1.15;0.60;;;18.40;85.10;;;;;;5105653;28;20115;-35
2022/07/28 09:07:40;;;;;;;1.52;0.80;;;18.40;84.20;;;;;;5105118;28;20122;-33
2022/07/28 09:10:10;;;;;;;0.95;0.70;;;18.40;84.30;;;;;;5104602;28;20028;-34
2022/07/28 09:12:38;;;;;;;1.77;0.60;;;18.40;84.40;;;;;;5105008;28;20076;-34
2022/07/28 09:15:05;;;;;;;0.45;0.30;;;18.50;84.60;;;;;;5104727;28;20106;-34
2022/07/28 09:17:32;;;;;;;0.63;0.43;;;18.60;84.50;;;;;;5103813;28;20047;-34
2022/07/28 09:19:57;;;;;;;0.60;0.40;;;18.60;84.30;;;;;;5105499;28;20391;-34
2022/07/28 09:22:23;;;;;;;0.63;0.50;;;18.70;83.80;;;;;;5104859;28;20027;-34
2022/07/28 09:24:49;;;;;;;0.82;0.60;;;18.70;83.60;;;;;;5103851;28;20027;-34
2022/07/28 09:27:15;;;;;;;1.17;0.52;;;18.80;83.70;;;;;;5105847;28;20122;-34
2022/07/28 09:29:45;;;;;;;0.57;0.50;;;18.80;83.90;;;;;;5104703;28;20031;-33
2022/07/28 09:32:15;;;;;;;1.23;0.50;;;18.90;84.00;;;;;;5106112;28;20042;-33
2022/07/28 09:34:42;;;;;;;1.42;0.50;;;19.00;84.10;;;;;;5105396;28;20475;-36
2022/07/28 09:37:23;;;;;;;0.68;0.43;;;19.10;84.20;;;;;;5105079;28;20062;-33
2022/07/28 09:39:51;;;;;;;0.88;0.40;;;19.20;84.30;;;;;;5104739;28;20505;-34
2022/07/28 09:42:17;;;;;;;0.73;0.50;;;19.30;84.20;;;;;;5105427;28;20055;-34
2022/07/28 09:44:43;;;;;;;1.00;0.40;;;19.40;84.00;;;;;;5103901;28;20124;-34
2022/07/28 09:47:26;;;;;;;0.65;0.60;;;19.40;83.10;;;;;;5105469;28;20455;-35
2022/07/28 09:49:52;;;;;;;0.75;0.50;;;19.50;82.90;;;;;;5105889;28;20031;-35
2022/07/28 09:52:38;;;;;;;2.40;0.60;;;19.50;82.80;;;;;;5103050;28;20027;-34
2022/07/28 09:55:11;;;;;;;1.52;0.80;;;19.60;82.30;;;;;;5104697;28;20032;-34
2022/07/28 09:57:37;;;;;;;;;;;19.60;81.80;;;;;;5101619;28;20535;-35
2022/07/28 10:00:07;;;;;;;2.30;0.50;;;19.60;81.70;;;;;;5105590;28;19907;-34
2022/07/28 10:02:33;;;;;;;1.63;0.60;;;19.60;81.60;;;;;;5104575;28;20024;-36
2022/07/28 10:04:59;;;;;;;3.47;0.60;;;19.70;81.70;;;;;;5104565;28;20081;-35
2022/07/28 10:07:28;;;;;;;0.45;0.40;;;19.70;81.60;;;;;;5104785;28;20118;-34
2022/07/28 10:10:02;;;;;;;0.95;0.50;;;19.90;82.40;;;;;;5105811;28;20027;-34
2022/07/28 10:12:30;;;;;;;0.68;0.47;;;19.90;81.40;;;;;;5104358;28;20058;-33
2022/07/28 10:14:58;;;;;;;1.58;0.50;;;20.00;81.30;;;;;;5085210;28;20078;-33
2022/07/28 10:17:29;;;;;;;0.32;0.32;;;20.10;81.10;;;;;;5098906;28;20016;-34
2022/07/28 10:19:57;;;;;;;1.38;0.70;;;20.30;81.20;;;;;;5104619;28;20075;-35
2022/07/28 10:22:27;;;;;;;0.65;0.43;;;20.40;80.50;;;;;;5105601;28;20017;-34
2022/07/28 10:24:53;;;;;;;0.93;0.43;;;20.40;80.10;;;;;;5104771;28;20411;-34
2022/07/28 10:27:21;;;;;;;0.75;0.30;;;20.50;80.40;;;;;;5104834;28;20031;-33
2022/07/28 10:29:54;;;;;;;1.02;0.50;;;20.50;80.50;;;;;;5104983;28;20026;-34
2022/07/28 10:32:19;;;;;;;1.48;0.50;;;20.60;80.30;;;;;;5104911;28;20028;-34
2022/07/28 10:35:08;;;;;;;1.75;0.70;;;20.70;78.90;;;;;;5104623;28;20707;-35
2022/07/28 10:37:53;;;;;;;0.98;0.60;;;20.70;78.70;;;;;;5104887;28;20035;-34
2022/07/28 10:40:25;;;;;;;0.98;0.50;;;20.70;77.90;;;;;;5104227;28;20028;-36
2022/07/28 10:42:51;;;;;;;0.80;0.50;;;20.80;78.00;;;;;;5104874;28;20497;-34
2022/07/28 10:45:17;;;;;;;0.90;0.38;;;20.80;78.00;;;;;;5105643;28;20016;-35
2022/07/28 10:47:44;;;;;;;0.57;0.50;;;20.80;78.00;;;;;;5104075;28;20035;-34
2022/07/28 10:50:09;;;;;;;1.15;0.43;;;20.90;78.30;;;;;;5105162;28;20383;-34
2022/07/28 10:52:37;;;;;;;0.80;0.60;;;21.00;78.30;;;;;;5103692;28;20020;-34
2022/07/28 10:55:15;;;;;;;0.88;0.60;;;21.10;77.60;;;;;;5104296;28;20507;-35
2022/07/28 10:57:50;;;;;;;0.68;0.65;;;21.10;77.00;;;;;;5104582;28;20019;-37
2022/07/28 11:00:19;;;;;;;1.55;0.70;;;21.10;76.70;;;;;;5094654;28;20023;-35
2022/07/28 11:02:56;;;;;;;0.85;0.50;;;21.00;76.50;;;;;;5104360;28;20016;-34
2022/07/28 11:05:37;;;;;;;1.05;0.43;;;20.90;76.80;;;;;;5093679;28;20035;-34
2022/07/28 11:08:27;;;;;;;0.73;0.60;;;20.90;76.30;;;;;;5104064;28;20061;-34
2022/07/28 11:10:54;;;;;;;0.40;0.30;;;20.90;76.90;;;;;;5097136;28;20027;-34
2022/07/28 11:13:34;;;;;;;1.38;0.40;;;20.90;77.20;;;;;;5104914;28;20016;-35
2022/07/28 11:16:12;;;;;;;0.65;0.50;;;20.90;76.40;;;;;;5104085;28;20023;-34
2022/07/28 11:19:07;;;;;;;2.70;0.60;;;21.00;75.80;;;;;;5107750;28;20023;-34
2022/07/28 11:21:33;;;;;;;1.42;0.50;;;21.00;75.50;;;;;;5107886;28;20031;-34
2022/07/28 11:23:59;;;;;;;0.60;0.40;;;21.00;75.90;;;;;;5107412;28;20041;-34
2022/07/28 11:26:26;;;;;;;0.50;0.50;;;21.00;76.00;;;;;;5105761;28;20790;-34
2022/07/28 11:29:09;;;;;;;0.85;0.50;;;21.00;75.90;;;;;;5107936;28;20027;-34
2022/07/28 11:31:44;;;;;;;0.70;0.50;;;21.00;76.00;;;;;;5107715;28;20490;-34
2022/07/28 11:34:10;;;;;;;1.33;0.50;;;21.10;75.50;;;;;;5107829;28;20020;-33
2022/07/28 11:37:12;;;;;;;0.57;0.50;;;21.00;74.90;;;;;;5106665;28;20467;-35
2022/07/28 11:39:39;;;;;;;0.80;0.50;;;21.10;75.20;;;;;;5113759;27;20050;-36
2022/07/28 11:42:23;;;;;;;0.73;0.40;;;21.00;74.90;;;;;;5107446;28;20028;-35
2022/07/28 11:44:49;;;;;;;1.02;0.50;;;21.00;74.20;;;;;;5105370;28;20062;-33
2022/07/28 11:47:20;;;;;;;2.10;0.50;;;21.00;74.70;;;;;;5107252;27;20054;-33
2022/07/28 11:50:09;;;;;;;0.82;0.40;;;21.00;74.80;;;;;;5106644;28;20467;-35
2022/07/28 11:52:35;;;;;;;0.43;0.43;;;21.10;74.80;;;;;;5107353;28;20062;-33
2022/07/28 11:55:02;;;;;;;0.35;0.30;;;21.10;74.90;;;;;;5107088;28;20030;-34
2022/07/28 11:57:28;;;;;;;0.75;0.40;;;21.20;75.00;;;;;;5106081;28;20027;-34
2022/07/28 11:59:56;;;;;;;0.88;0.40;;;21.30;75.10;;;;;;5107187;28;20018;-34
2022/07/28 12:02:26;;;;;;;1.58;0.32;;;21.30;75.10;;;;;;5107479;28;20080;-34
2022/07/28 12:04:57;;;;;;;0.50;0.50;;;21.40;74.90;;;;;;5106737;28;20023;-34
2022/07/28 12:07:28;;;;;;;1.35;0.52;;;21.50;74.90;;;;;;5107071;28;20042;-35
2022/07/28 12:09:54;;;;;;;1.08;0.60;;;21.50;74.70;;;;;;5107360;28;20019;-35
2022/07/28 12:12:19;;;;;;;0.82;0.43;;;21.50;74.60;;;;;;5106790;28;20016;-33
2022/07/28 12:14:45;;;;;;;0.80;0.50;;;21.50;74.60;;;;;;5107171;28;20112;-34
2022/07/28 12:17:11;;;;;;;1.13;0.50;;;21.50;74.60;;;;;;5107501;28;20412;-33
2022/07/28 12:19:36;;;;;;;1.02;0.50;;;21.60;74.60;;;;;;5105715;28;20024;-33
2022/07/28 12:22:09;;;;;;;2.38;0.40;;;21.60;74.50;;;;;;5106342;28;20435;-33
2022/07/28 12:24:35;;;;;;;0.75;0.55;;;21.70;74.30;;;;;;5106863;28;20092;-34
2022/07/28 12:27:00;;;;;;;1.02;0.50;;;21.70;74.10;;;;;;5105912;28;20130;-34
2022/07/28 12:29:30;;;;;;;1.30;0.50;;;21.70;74.20;;;;;;5105526;28;20028;-33
2022/07/28 12:32:01;;;;;;;0.50;0.50;;;21.80;74.30;;;;;;5105870;28;20023;-33
2022/07/28 12:34:29;;;;;;;3.85;0.60;;;21.90;74.20;;;;;;5105579;28;20478;-34
2022/07/28 12:36:56;;;;;;;1.17;0.70;;;22.10;74.10;;;;;;5107074;28;20540;-34
2022/07/28 12:39:24;;;;;;;0.77;0.63;;;22.20;74.00;;;;;;5106614;28;20462;-34
2022/07/28 12:42:06;;;;;;;2.40;0.60;;;22.30;73.80;;;;;;5106824;28;20111;-35
2022/07/28 12:44:37;;;;;;;1.83;0.50;;;22.40;73.80;;;;;;5106393;28;20059;-35
2022/07/28 12:47:06;;;;;;;1.05;0.45;;;22.60;73.80;;;;;;5105976;28;20573;-34
2022/07/28 12:49:32;;;;;;;1.23;0.50;;;22.80;73.50;;;;;;5097606;28;20108;-33
2022/07/28 12:51:59;;;;;;;1.15;0.50;;;22.90;72.90;;;;;;5095289;28;20786;-35
2022/07/28 12:54:36;;;;;;;2.45;0.60;;;23.00;72.20;;;;;;5104283;28;20027;-34
2022/07/28 12:57:02;;;;;;;1.13;0.50;;;23.00;72.10;;;;;;5104477;28;20047;-35
2022/07/28 12:59:37;;;;;;;0.75;0.50;;;23.00;71.80;;;;;;5105843;28;20031;-33